Time;durP1;ratioP1;P1;durP2;ratioP2;P2;SDS_P1;SDS_P2;PMS_P1;PMS_P2;Temp;Humidity;BMP_temperature;BMP_pressure;BME280_temperature;BME280_humidity;BME280_pressure;Samples;Min_cycle;Max_cycle;Signal;HPM_P1;HPM_P2
2021/12/12 00:02:10;;;;;;;41.70;16.98;;;;;;;-8.60;69.24;100524.50;5152525;27;20034;-60
2021/12/12 00:04:38;;;;;;;33.58;14.75;;;;;;;-8.55;69.35;100517.34;5153690;27;20030;-59
2021/12/12 00:07:12;;;;;;;36.60;13.65;;;;;;;-8.51;69.70;100508.53;5152176;27;20035;-60
2021/12/12 00:09:45;;;;;;;32.63;14.02;;;;;;;-8.48;70.30;100515.25;5152318;27;20538;-59
2021/12/12 00:12:15;;;;;;;32.95;13.82;;;;;;;-8.43;69.76;100522.72;5152348;27;20095;-59
2021/12/12 00:14:41;;;;;;;38.95;15.18;;;;;;;-8.32;69.98;100525.47;5152811;27;20510;-58
2021/12/12 00:17:09;;;;;;;41.97;15.60;;;;;;;-8.27;69.97;100534.53;5152234;27;20069;-58
2021/12/12 00:19:35;;;;;;;35.72;15.35;;;;;;;-8.25;70.39;100531.91;5152821;27;20118;-57
2021/12/12 00:22:08;;;;;;;38.55;13.25;;;;;;;-8.18;69.34;100533.19;5152477;27;20050;-57
2021/12/12 00:24:34;;;;;;;38.05;14.45;;;;;;;-8.13;70.42;100541.47;5151798;27;20562;-55
2021/12/12 00:27:00;;;;;;;40.15;15.15;;;;;;;-8.14;68.95;100544.16;5153391;27;20034;-58
2021/12/12 00:29:27;;;;;;;32.72;13.93;;;;;;;-8.16;70.42;100544.22;5152147;27;20125;-58
2021/12/12 00:31:57;;;;;;;39.80;15.35;;;;;;;-8.11;70.56;100546.53;5152063;27;20045;-57
2021/12/12 00:34:25;;;;;;;41.60;15.82;;;;;;;-8.10;69.84;100550.75;5151410;27;20072;-57
2021/12/12 00:36:50;;;;;;;34.22;13.77;;;;;;;-8.11;68.80;100536.25;5153185;27;20042;-57
2021/12/12 00:39:21;;;;;;;30.85;12.48;;;;;;;-8.14;69.26;100536.44;5152047;27;20047;-56
2021/12/12 00:41:53;;;;;;;36.60;14.38;;;;;;;-8.12;69.86;100534.56;5151902;27;20047;-57
2021/12/12 00:44:19;;;;;;;33.70;14.55;;;;;;;-8.03;69.85;100532.31;5151675;27;20077;-58
2021/12/12 00:46:46;;;;;;;37.85;13.45;;;;;;;-7.94;69.00;100535.22;5152973;27;20070;-58
2021/12/12 00:49:13;;;;;;;35.28;15.40;;;;;;;-7.90;68.92;100539.31;5153227;27;20073;-58
2021/12/12 00:51:41;;;;;;;39.63;14.82;;;;;;;-7.94;68.53;100532.66;5152558;27;20038;-56
2021/12/12 00:54:10;;;;;;;27.05;13.23;;;;;;;-8.02;68.82;100544.25;5151482;27;20046;-57
2021/12/12 00:56:36;;;;;;;28.75;14.63;;;;;;;-8.13;69.55;100548.38;5152884;27;20062;-57
2021/12/12 00:59:03;;;;;;;38.42;15.20;;;;;;;-8.18;69.83;100546.03;5153036;27;20511;-57
2021/12/12 01:01:35;;;;;;;35.03;13.57;;;;;;;-8.28;69.51;100545.75;5151401;27;20066;-58
2021/12/12 01:04:11;;;;;;;33.08;13.70;;;;;;;-8.19;69.91;100554.69;5152953;27;20070;-59
2021/12/12 01:06:37;;;;;;;30.63;11.57;;;;;;;-8.07;70.09;100553.97;5152803;27;20466;-59
2021/12/12 01:09:07;;;;;;;29.90;11.05;;;;;;;-8.08;69.68;100556.66;5151639;27;20126;-59
2021/12/12 01:11:35;;;;;;;;;;;;;;;-8.06;69.75;100554.78;5150889;27;20496;-59
2021/12/12 01:14:04;;;;;;;26.27;10.50;;;;;;;-8.06;69.09;100553.06;5152438;27;19979;-59
2021/12/12 01:16:37;;;;;;;31.35;14.35;;;;;;;-8.10;69.68;100554.16;5152086;27;20038;-59
2021/12/12 01:19:24;;;;;;;39.05;14.52;;;;;;;-7.99;70.15;100545.81;5132210;27;20054;-59
2021/12/12 01:21:54;;;;;;;36.90;12.18;;;;;;;-7.96;68.14;100539.66;5132243;27;20080;-59
2021/12/12 01:24:30;;;;;;;40.30;14.00;;;;;;;-7.94;68.57;100535.22;5132102;27;20070;-58
2021/12/12 01:26:57;;;;;;;33.05;12.55;;;;;;;-7.81;68.60;100533.59;5132284;27;20126;-59
2021/12/12 01:29:23;;;;;;;38.25;13.55;;;;;;;-7.83;69.52;100535.44;5126153;27;20126;-59
2021/12/12 01:31:49;;;;;;;28.58;12.15;;;;;;;-7.77;68.99;100540.22;5135719;27;20123;-61
2021/12/12 01:34:20;;;;;;;30.67;12.13;;;;;;;-7.81;68.24;100538.75;5135936;27;20049;-60
2021/12/12 01:37:04;;;;;;;33.13;12.50;;;;;;;-7.84;68.51;100544.91;5142766;27;20042;-58
2021/12/12 01:39:42;;;;;;;26.25;12.25;;;;;;;-7.89;69.53;100535.81;5156818;27;20046;-58
2021/12/12 01:42:18;;;;;;;29.33;11.90;;;;;;;-7.84;68.94;100534.59;5138110;27;20095;-58
2021/12/12 01:44:45;;;;;;;30.15;12.93;;;;;;;-7.90;69.70;100527.25;5156717;27;20476;-56
2021/12/12 01:47:34;;;;;;;34.90;13.23;;;;;;;-8.01;70.08;100522.72;5155983;27;20039;-58
2021/12/12 01:50:09;;;;;;;32.20;12.93;;;;;;;-8.00;69.31;100519.25;5150726;27;20051;-59
2021/12/12 01:52:35;;;;;;;34.20;13.15;;;;;;;-8.00;69.96;100511.53;5155118;27;20103;-59
2021/12/12 01:55:12;;;;;;;33.53;13.30;;;;;;;-7.96;69.95;100512.19;5154832;27;20158;-59
2021/12/12 01:57:40;;;;;;;32.40;12.32;;;;;;;-7.98;70.36;100516.59;5134060;27;20527;-59
2021/12/12 02:00:23;;;;;;;37.72;13.80;;;;;;;-8.06;69.75;100511.06;5134323;27;20067;-60
2021/12/12 02:02:50;;;;;;;31.25;13.02;;;;;;;-8.03;70.22;100506.56;5135317;27;20108;-60
2021/12/12 02:05:18;;;;;;;36.75;12.40;;;;;;;-8.00;71.00;100514.13;5135617;27;20130;-60
2021/12/12 02:07:46;;;;;;;30.90;11.07;;;;;;;-7.88;70.36;100517.72;5153837;27;20030;-60
2021/12/12 02:10:26;;;;;;;27.35;11.52;;;;;;;-7.79;69.59;100511.19;5154723;27;20052;-59
2021/12/12 02:12:52;;;;;;;30.92;12.20;;;;;;;-7.82;69.95;100516.50;5155740;27;20046;-59
2021/12/12 02:15:21;;;;;;;30.77;11.82;;;;;;;-7.84;69.67;100506.28;5137629;27;20511;-59
2021/12/12 02:17:49;;;;;;;33.28;13.02;;;;;;;-7.93;70.09;100499.13;5154568;27;20046;-59
2021/12/12 02:20:35;;;;;;;30.30;11.80;;;;;;;-7.92;70.35;100505.91;5154682;27;20556;-60
2021/12/12 02:36:36;;;;;;;38.22;13.43;;;;;;;-7.68;69.55;100500.22;5154612;27;20065;-59
2021/12/12 02:39:08;;;;;;;32.08;12.75;;;;;;;-7.68;69.47;100502.78;5154307;27;20038;-59
2021/12/12 02:41:34;;;;;;;26.95;10.73;;;;;;;-7.74;70.22;100503.16;5135668;27;20047;-57
2021/12/12 02:44:03;;;;;;;32.03;11.95;;;;;;;-7.81;70.34;100500.13;5155163;27;20117;-59
2021/12/12 02:46:33;;;;;;;37.80;12.65;;;;;;;-7.78;70.08;100505.94;5155423;27;20523;-58
2021/12/12 02:49:07;;;;;;;35.83;12.40;;;;;;;-7.71;70.81;100501.22;5155577;27;20042;-59
2021/12/12 02:51:36;;;;;;;31.48;12.00;;;;;;;-7.63;70.73;100505.91;5155104;27;20027;-58
2021/12/12 02:54:02;;;;;;;29.25;11.02;;;;;;;-7.67;70.25;100513.00;5155293;27;20042;-58
2021/12/12 02:56:36;;;;;;;27.25;11.50;;;;;;;-7.70;69.52;100510.63;5136338;27;20046;-59
2021/12/12 02:59:06;;;;;;;28.90;11.00;;;;;;;-7.71;70.31;100505.56;5153826;27;20179;-59
2021/12/12 03:01:50;;;;;;;37.97;11.73;;;;;;;-7.77;70.31;100504.16;5154568;27;20045;-56
2021/12/12 03:04:16;;;;;;;32.55;12.48;;;;;;;-7.80;70.71;100486.34;5155442;27;20043;-57
2021/12/12 03:06:43;;;;;;;28.50;11.60;;;;;;;-7.86;70.38;100473.84;5154924;27;20395;-58
2021/12/12 03:09:19;;;;;;;22.85;10.32;;;;;;;-7.79;69.64;100481.13;5154874;27;20043;-57
2021/12/12 03:11:49;;;;;;;28.38;11.30;;;;;;;-7.76;70.35;100487.81;5152867;27;20043;-58
2021/12/12 03:14:15;;;;;;;35.53;13.80;;;;;;;-7.70;69.84;100479.72;5154740;27;20096;-57
2021/12/12 03:16:41;;;;;;;30.70;12.88;;;;;;;-7.78;70.33;100469.06;5154565;27;20311;-55
2021/12/12 03:19:08;;;;;;;31.00;11.50;;;;;;;-7.88;71.15;100471.38;5154314;27;20075;-57
2021/12/12 03:21:37;;;;;;;28.52;12.52;;;;;;;-7.79;69.98;100482.88;5154823;27;20045;-60
2021/12/12 03:24:07;;;;;;;43.53;13.18;;;;;;;-7.75;69.96;100476.59;5153434;27;20125;-59
2021/12/12 03:26:34;;;;;;;29.90;11.98;;;;;;;-7.73;69.84;100477.34;5153263;27;20165;-57
2021/12/12 03:29:00;;;;;;;36.38;12.68;;;;;;;-7.78;70.07;100469.88;5154572;27;20039;-58
2021/12/12 03:31:30;;;;;;;30.55;12.07;;;;;;;-7.86;70.42;100471.28;5101858;27;20041;-58
2021/12/12 03:33:56;;;;;;;38.42;12.20;;;;;;;-7.96;71.18;100471.00;5132432;27;20054;-56
2021/12/12 03:36:24;;;;;;;29.55;11.55;;;;;;;-8.01;72.36;100467.88;5132496;27;20060;-57
2021/12/12 03:38:56;;;;;;;33.67;12.68;;;;;;;-7.97;71.04;100471.94;5137566;27;20035;-57
2021/12/12 03:41:29;;;;;;;38.25;12.30;;;;;;;-7.87;71.00;100469.63;5154302;27;20058;-57
2021/12/12 03:43:57;;;;;;;36.50;13.32;;;;;;;-7.95;70.72;100467.50;5152980;27;20054;-56
2021/12/12 03:46:24;;;;;;;34.83;10.82;;;;;;;-8.00;70.74;100466.94;5152364;27;20049;-59
2021/12/12 03:48:50;;;;;;;24.13;10.75;;;;;;;-8.03;71.93;100472.28;5154131;27;20039;-59
2021/12/12 03:51:18;;;;;;;36.50;12.57;;;;;;;-7.94;71.14;100461.47;5154006;27;20049;-58
2021/12/12 03:53:45;;;;;;;33.95;12.48;;;;;;;-7.92;72.12;100464.75;5153800;27;20469;-57
2021/12/12 03:56:12;;;;;;;37.08;12.93;;;;;;;-7.89;72.21;100464.56;5153512;27;20046;-58
2021/12/12 03:58:38;;;;;;;27.45;11.90;;;;;;;-7.92;71.56;100464.75;5153772;27;20031;-57
2021/12/12 04:01:10;;;;;;;26.40;11.27;;;;;;;-7.94;72.12;100463.19;5154160;27;20175;-59
2021/12/12 04:03:37;;;;;;;44.53;13.68;;;;;;;-7.88;71.78;100473.94;5152692;27;20074;-59
2021/12/12 04:06:06;;;;;;;32.45;12.30;;;;;;;-7.75;71.10;100475.78;5153769;27;20511;-57
2021/12/12 04:08:36;;;;;;;39.90;14.15;;;;;;;-7.79;71.98;100478.53;5153563;27;20039;-59
2021/12/12 04:11:03;;;;;;;41.63;14.93;;;;;;;-7.72;71.41;100488.47;5153342;27;20035;-59
2021/12/12 04:13:29;;;;;;;30.23;12.10;;;;;;;-7.83;70.95;100476.22;5153408;27;20523;-60
2021/12/12 04:15:57;;;;;;;39.13;13.25;;;;;;;-7.70;70.77;100479.72;5153323;27;20068;-58
2021/12/12 04:18:26;;;;;;;29.33;11.73;;;;;;;-7.64;70.70;100478.53;5153732;27;20043;-60
2021/12/12 04:20:55;;;;;;;31.27;12.40;;;;;;;-7.70;70.28;100479.72;5153155;27;20038;-59
2021/12/12 04:23:25;;;;;;;35.63;13.40;;;;;;;-7.70;70.65;100477.16;5153769;27;20453;-58
2021/12/12 04:25:51;;;;;;;33.00;13.10;;;;;;;-7.55;69.71;100480.53;5135216;27;20050;-59
2021/12/12 04:28:17;;;;;;;34.58;13.68;;;;;;;-7.40;69.48;100483.91;5152419;27;20473;-60
2021/12/12 04:30:44;;;;;;;37.53;13.93;;;;;;;-7.31;70.00;100491.06;5153434;27;20087;-59
2021/12/12 04:33:10;;;;;;;32.03;13.18;;;;;;;-7.29;70.09;100491.81;5151974;27;20046;-59
2021/12/12 04:35:36;;;;;;;36.33;12.90;;;;;;;-7.30;69.94;100492.69;5153594;27;20047;-60
2021/12/12 04:38:03;;;;;;;38.72;14.30;;;;;;;-7.26;69.55;100499.34;5153286;27;20034;-60
2021/12/12 04:40:32;;;;;;;37.28;13.15;;;;;;;-7.30;69.63;100503.00;5152862;27;20408;-59
2021/12/12 04:42:59;;;;;;;27.07;13.07;;;;;;;-7.37;69.68;100501.75;5135136;27;20350;-59
2021/12/12 04:45:26;;;;;;;35.97;13.73;;;;;;;-7.31;69.62;100501.38;5151981;27;20047;-59
2021/12/12 04:50:56;;;;;;;29.90;11.98;;;;;;;-7.37;69.42;100512.88;5132683;27;20063;-60
2021/12/12 04:53:33;;;;;;;35.05;14.35;;;;;;;-7.36;69.70;100516.28;5131257;28;20051;-59
2021/12/12 04:56:33;;;;;;;41.55;13.95;;;;;;;-7.46;69.89;100513.44;5136747;27;20058;-60
2021/12/12 04:59:07;;;;;;;33.97;13.18;;;;;;;-7.43;70.68;100508.09;5152902;27;20050;-57
2021/12/12 05:01:59;;;;;;;40.90;13.55;;;;;;;-7.42;69.49;100514.06;5151800;27;20039;-58
2021/12/12 05:04:30;;;;;;;35.65;13.52;;;;;;;-7.36;69.90;100514.50;5151423;27;20034;-59
2021/12/12 05:07:35;;;;;;;39.65;14.38;;;;;;;-7.26;69.58;100517.38;5156214;27;20412;-58
2021/12/12 05:10:06;;;;;;;36.28;14.60;;;;;;;-7.27;69.44;100522.59;5138574;27;20039;-58
2021/12/12 05:12:36;;;;;;;35.60;12.13;;;;;;;-7.31;70.17;100519.41;5155645;27;20061;-59
2021/12/12 05:15:10;;;;;;;32.58;13.15;;;;;;;-7.35;70.48;100516.19;5156349;27;20069;-59
2021/12/12 05:17:43;;;;;;;37.65;14.57;;;;;;;-7.29;70.23;100519.28;5156864;27;20064;-59
2021/12/12 05:20:18;;;;;;;42.72;15.60;;;;;;;-7.31;69.74;100525.38;5155635;27;20137;-60
2021/12/12 05:22:48;;;;;;;42.42;13.55;;;;;;;-7.29;69.91;100533.03;5156011;27;20046;-59
2021/12/12 05:25:17;;;;;;;48.92;15.80;;;;;;;-7.21;70.35;100533.34;5156965;27;20133;-59
2021/12/12 05:27:45;;;;;;;41.90;14.98;;;;;;;-7.26;69.35;100516.50;5157215;27;20038;-60
2021/12/12 05:30:15;;;;;;;39.90;14.55;;;;;;;-7.25;70.70;100525.91;5155599;27;20039;-57
2021/12/12 05:32:41;;;;;;;38.00;14.98;;;;;;;-7.22;70.52;100516.25;5157039;27;20043;-58
2021/12/12 05:35:09;;;;;;;43.53;16.10;;;;;;;-7.20;69.67;100518.75;5156164;27;20049;-58
2021/12/12 05:37:36;;;;;;;41.50;14.73;;;;;;;-7.14;70.14;100521.75;5156942;27;20441;-59
2021/12/12 05:40:07;;;;;;;34.92;14.40;;;;;;;-7.12;69.51;100527.66;5156856;27;20038;-59
2021/12/12 05:42:33;;;;;;;39.35;15.95;;;;;;;-7.18;70.26;100522.03;5156109;27;20423;-59
2021/12/12 05:44:59;;;;;;;48.15;16.83;;;;;;;-7.19;70.18;100523.78;5156684;27;20042;-59
2021/12/12 05:47:26;;;;;;;44.80;17.25;;;;;;;-7.19;70.46;100518.63;5156629;27;20066;-58
2021/12/12 05:49:51;;;;;;;51.20;16.30;;;;;;;-7.12;70.28;100521.63;5154592;27;20034;-58
2021/12/12 05:52:19;;;;;;;42.38;15.43;;;;;;;-7.00;69.21;100530.34;5155262;27;20405;-59
2021/12/12 05:54:46;;;;;;;45.60;16.55;;;;;;;-7.01;69.78;100532.09;5154639;27;20069;-60
2021/12/12 05:57:13;;;;;;;38.65;14.23;;;;;;;-6.97;69.21;100520.69;5156380;27;20066;-57
2021/12/12 05:59:39;;;;;;;39.80;15.60;;;;;;;-7.02;69.11;100511.59;5155882;27;20404;-58
2021/12/12 06:02:06;;;;;;;39.50;14.27;;;;;;;-7.06;69.82;100515.28;5156149;27;20125;-61
2021/12/12 06:04:33;;;;;;;35.78;14.40;;;;;;;-7.04;70.31;100510.88;5155064;27;20072;-58
2021/12/12 06:07:02;;;;;;;38.85;14.82;;;;;;;-7.05;70.38;100509.22;5154230;27;20163;-58
2021/12/12 06:09:28;;;;;;;43.78;15.50;;;;;;;-6.98;69.71;100513.06;5154297;27;20039;-59
2021/12/12 06:11:55;;;;;;;44.58;16.65;;;;;;;-7.00;70.31;100523.47;5155842;27;20068;-59
2021/12/12 06:14:21;;;;;;;33.92;15.45;;;;;;;-6.95;70.10;100518.00;5154785;27;20042;-60
2021/12/12 06:16:48;;;;;;;51.75;17.20;;;;;;;-6.96;69.60;100521.53;5136942;27;20130;-60
2021/12/12 06:19:19;;;;;;;42.10;13.95;;;;;;;-6.98;70.63;100520.78;5154557;27;20488;-59
2021/12/12 06:21:49;;;;;;;42.03;15.32;;;;;;;-6.96;70.50;100530.06;5154125;27;20130;-59
2021/12/12 06:24:15;;;;;;;39.90;15.95;;;;;;;-6.92;69.84;100528.94;5154990;27;20111;-59
2021/12/12 06:26:41;;;;;;;43.85;17.30;;;;;;;-6.86;69.90;100532.88;5154355;27;20153;-57
2021/12/12 06:29:07;;;;;;;39.05;14.25;;;;;;;-6.81;69.67;100535.19;5155846;27;20175;-59
2021/12/12 06:31:41;;;;;;;46.63;15.50;;;;;;;-6.83;69.52;100529.28;5153694;27;20141;-57
2021/12/12 06:34:09;;;;;;;46.53;16.30;;;;;;;-6.80;69.37;100524.75;5153998;27;20042;-59
2021/12/12 06:36:35;;;;;;;39.03;14.10;;;;;;;-6.80;69.25;100522.19;5155765;27;20042;-59
2021/12/12 06:39:05;;;;;;;45.67;16.75;;;;;;;-6.81;70.43;100520.53;5154092;27;20043;-59
2021/12/12 06:41:31;;;;;;;43.33;15.55;;;;;;;-6.79;69.64;100521.28;5154156;27;20039;-63
2021/12/12 06:43:57;;;;;;;43.67;16.73;;;;;;;-6.79;69.33;100510.09;5154210;27;20049;-59
2021/12/12 06:46:23;;;;;;;48.45;17.05;;;;;;;-6.71;70.09;100516.44;5155502;27;20122;-60
2021/12/12 06:48:50;;;;;;;48.97;15.90;;;;;;;-6.59;69.31;100526.88;5154496;27;20038;-60
2021/12/12 06:51:16;;;;;;;48.45;15.85;;;;;;;-6.55;69.51;100521.44;5155031;27;20068;-60
2021/12/12 06:53:44;;;;;;;34.38;13.30;;;;;;;-6.53;69.12;100523.91;5136047;27;20039;-58
2021/12/12 06:56:11;;;;;;;39.55;15.65;;;;;;;-6.55;69.27;100524.03;5154935;27;20055;-60
2021/12/12 06:58:37;;;;;;;39.70;14.38;;;;;;;-6.51;68.88;100522.06;5154619;27;20095;-60
2021/12/12 07:01:09;;;;;;;45.08;15.75;;;;;;;-6.44;68.87;100525.88;5132340;27;20124;-60
2021/12/12 07:03:37;;;;;;;40.40;15.85;;;;;;;-6.49;68.60;100512.47;5134503;27;20035;-60
2021/12/12 07:06:03;;;;;;;46.38;17.15;;;;;;;-6.37;68.33;100534.88;5134483;27;20066;-60
2021/12/12 07:08:30;;;;;;;43.63;16.02;;;;;;;-6.34;68.28;100537.25;5140410;27;20525;-59
2021/12/12 07:10:55;;;;;;;46.70;17.25;;;;;;;-6.45;69.34;100537.97;5155074;27;20039;-61
2021/12/12 07:13:22;;;;;;;49.80;17.20;;;;;;;-6.38;68.78;100533.25;5153318;27;20042;-62
2021/12/12 07:15:55;;;;;;;48.88;16.73;;;;;;;-6.32;68.23;100527.69;5154781;27;20086;-62
2021/12/12 07:18:25;;;;;;;53.10;17.70;;;;;;;-6.24;68.32;100519.41;5119074;27;20484;-62
2021/12/12 07:20:53;;;;;;;45.85;17.38;;;;;;;-6.32;68.18;100512.19;5154778;27;20049;-61
2021/12/12 07:23:19;;;;;;;44.67;16.88;;;;;;;-6.32;69.13;100516.50;5154605;27;20046;-61
2021/12/12 07:25:46;;;;;;;57.40;19.27;;;;;;;-6.35;69.37;100509.81;5152609;27;20476;-62
2021/12/12 07:28:13;;;;;;;50.97;15.80;;;;;;;-6.30;69.29;100509.50;5152129;27;20043;-62
2021/12/12 07:30:40;;;;;;;51.38;17.85;;;;;;;-6.32;69.70;100499.28;5154475;27;20095;-62
2021/12/12 07:33:06;;;;;;;51.63;17.38;;;;;;;-6.21;69.70;100512.28;5152653;27;20039;-62
2021/12/12 07:35:33;;;;;;;51.22;17.33;;;;;;;-6.20;69.03;100508.81;5154536;27;20396;-62
2021/12/12 07:37:59;;;;;;;51.30;17.10;;;;;;;-6.19;68.95;100509.63;5154287;27;20043;-60
2021/12/12 07:40:25;;;;;;;60.03;17.25;;;;;;;-6.23;69.91;100514.16;5152259;27;20026;-59
2021/12/12 07:42:52;;;;;;;51.03;17.08;;;;;;;-6.14;69.57;100522.22;5154425;27;20098;-58
2021/12/12 07:45:20;;;;;;;48.97;17.88;;;;;;;-6.12;69.21;100517.78;5153063;27;20042;-59
2021/12/12 07:47:47;;;;;;;47.10;18.38;;;;;;;-6.17;69.30;100524.09;5152836;27;20059;-54
2021/12/12 07:50:15;;;;;;;49.20;17.05;;;;;;;-6.09;69.23;100530.47;5151093;27;20038;-52
2021/12/12 07:52:41;;;;;;;50.25;19.60;;;;;;;-6.04;69.01;100525.84;5153676;27;20628;-55
2021/12/12 07:55:07;;;;;;;48.15;18.38;;;;;;;-6.09;69.59;100525.31;5151104;27;20098;-54
2021/12/12 07:57:33;;;;;;;42.15;16.35;;;;;;;-6.08;69.17;100524.41;5125810;27;20420;-54
2021/12/12 08:00:00;;;;;;;49.30;17.25;;;;;;;-6.09;69.49;100530.47;5153333;27;20037;-55
2021/12/12 08:02:27;;;;;;;55.10;18.13;;;;;;;-6.12;69.58;100518.59;5153729;27;20043;-59
2021/12/12 08:04:54;;;;;;;55.05;17.02;;;;;;;-6.07;69.49;100520.88;5153682;27;20084;-55
2021/12/12 08:07:23;;;;;;;49.60;18.42;;;;;;;-5.90;69.32;100517.97;5152810;27;20423;-61
2021/12/12 08:09:50;;;;;;;49.15;16.92;;;;;;;-5.88;68.82;100528.16;5142131;27;20039;-61
2021/12/12 08:12:19;;;;;;;56.00;17.40;;;;;;;-5.90;69.32;100520.53;5151044;27;20043;-61
2021/12/12 08:14:47;;;;;;;46.17;17.60;;;;;;;-5.89;69.12;100503.28;5151987;27;20102;-59
2021/12/12 08:17:13;;;;;;;44.50;18.02;;;;;;;-5.71;68.96;100507.19;5152414;27;20073;-52
2021/12/12 08:19:39;;;;;;;51.30;17.90;;;;;;;-5.64;68.53;100494.69;5153406;27;20571;-56
2021/12/12 08:22:09;;;;;;;47.83;16.48;;;;;;;-5.63;68.81;100496.34;5151863;27;20131;-55
2021/12/12 08:24:37;;;;;;;52.50;16.95;;;;;;;-5.65;68.83;100485.28;5152991;27;20070;-55
2021/12/12 08:27:05;;;;;;;50.10;15.13;;;;;;;-5.62;68.44;100488.47;5152445;27;20169;-59
2021/12/12 08:29:32;;;;;;;50.22;15.93;;;;;;;-5.60;68.49;100481.44;5151625;27;20026;-55
2021/12/12 08:31:59;;;;;;;49.42;16.35;;;;;;;-5.59;68.69;100487.44;5151820;27;20053;-56
2021/12/12 08:34:26;;;;;;;48.35;15.90;;;;;;;-5.62;68.88;100487.66;5150493;27;20038;-55
2021/12/12 08:36:58;;;;;;;52.97;17.92;;;;;;;-5.66;68.90;100488.81;5152058;27;20504;-56
2021/12/12 08:39:27;;;;;;;53.80;16.85;;;;;;;-5.68;69.42;100488.06;5152229;27;20039;-62
2021/12/12 08:41:55;;;;;;;57.25;19.48;;;;;;;-5.69;69.98;100496.75;5153309;27;20061;-62
2021/12/12 08:44:21;;;;;;;50.33;19.10;;;;;;;-5.64;69.17;100482.59;5152659;27;20494;-56
2021/12/12 08:46:49;;;;;;;55.72;20.08;;;;;;;-5.66;69.19;100483.63;5151859;27;20130;-59
2021/12/12 08:49:17;;;;;;;54.15;18.45;;;;;;;-5.64;69.47;100479.19;5151444;27;20034;-58
2021/12/12 08:51:47;;;;;;;50.95;17.58;;;;;;;-5.61;69.45;100484.97;5151945;27;20043;-59
2021/12/12 08:54:23;;;;;;;57.80;20.92;;;;;;;-5.51;69.03;100488.56;5152160;27;20083;-62
2021/12/12 08:56:51;;;;;;;56.55;17.40;;;;;;;-5.33;68.57;100486.44;5151380;27;20138;-58
2021/12/12 08:59:24;;;;;;;51.80;18.48;;;;;;;-5.43;69.66;100494.97;5151191;27;20026;-62
2021/12/12 09:01:53;;;;;;;57.60;20.77;;;;;;;-5.39;69.76;100504.13;5150227;27;20045;-57
2021/12/12 09:04:19;;;;;;;57.38;20.60;;;;;;;-5.50;69.72;100499.72;5152260;27;20566;-59
2021/12/12 09:06:55;;;;;;;61.85;20.58;;;;;;;-5.31;69.14;100513.00;5150310;27;20126;-56
2021/12/12 09:09:25;;;;;;;64.75;19.08;;;;;;;-5.26;69.12;100515.28;5152201;27;20035;-60
2021/12/12 09:12:00;;;;;;;60.30;19.25;;;;;;;-5.25;68.92;100504.00;5151006;27;20082;-57
2021/12/12 09:14:33;;;;;;;42.70;16.80;;;;;;;-5.19;69.02;100511.31;5150732;27;20050;-55
2021/12/12 09:17:11;;;;;;;62.88;19.55;;;;;;;-5.12;69.28;100501.34;5115020;27;20118;-56
2021/12/12 09:19:40;;;;;;;62.00;19.98;;;;;;;-5.13;68.99;100497.13;5149882;27;20094;-58
2021/12/12 09:22:40;;;;;;;60.42;20.70;;;;;;;-5.14;69.08;100501.47;5152851;27;20038;-56
2021/12/12 09:25:41;;;;;;;45.90;18.17;;;;;;;-5.15;69.67;100502.41;5151725;27;20555;-55
2021/12/12 09:28:17;;;;;;;59.30;19.42;;;;;;;-5.31;70.17;100497.50;5131826;27;20074;-54
2021/12/12 09:30:43;;;;;;;61.80;20.90;;;;;;;-5.22;70.37;100505.53;5141206;27;20049;-55
2021/12/12 09:33:35;;;;;;;57.58;18.65;;;;;;;-5.25;70.25;100497.06;5146546;27;20054;-57
2021/12/12 09:36:08;;;;;;;68.80;19.40;;;;;;;-5.18;70.28;100494.84;5137918;27;20050;-54
2021/12/12 09:38:39;;;;;;;61.38;20.58;;;;;;;-5.10;69.92;100486.56;5135021;27;20065;-60
2021/12/12 09:41:45;;;;;;;65.72;19.60;;;;;;;-5.00;69.52;100473.78;5147142;27;20086;-60
2021/12/12 09:44:43;;;;;;;67.65;22.02;;;;;;;-5.07;69.57;100481.19;5131540;27;20027;-55
2021/12/12 09:47:30;;;;;;;58.75;19.65;;;;;;;-5.00;69.61;100486.72;5141339;27;20042;-52
2021/12/12 09:53:18;;;;;;;74.20;21.05;;;;;;;-4.81;69.80;100480.13;5154818;27;20458;-59
2021/12/12 09:55:46;;;;;;;70.63;21.40;;;;;;;-4.78;70.07;100483.44;5153059;27;20046;-56
2021/12/12 09:58:24;;;;;;;58.85;20.33;;;;;;;-4.78;70.97;100467.91;5155154;27;20042;-49
2021/12/12 10:01:06;;;;;;;66.55;20.38;;;;;;;-4.69;70.38;100468.06;5135816;27;20067;-51
2021/12/12 10:03:39;;;;;;;76.28;22.98;;;;;;;-4.59;70.44;100466.44;5155136;27;20038;-59
2021/12/12 10:06:23;;;;;;;72.50;22.13;;;;;;;-4.55;69.66;100464.47;5153648;27;20054;-56
2021/12/12 10:09:47;;;;;;;62.08;20.48;;;;;;;-4.43;70.08;100479.06;5154763;27;20054;-54
2021/12/12 10:12:18;;;;;;;65.30;22.40;;;;;;;-4.41;70.51;100477.19;5150362;27;20054;-55
2021/12/12 10:14:51;;;;;;;54.17;20.42;;;;;;;-4.36;68.78;100469.06;5154706;27;20129;-55
2021/12/12 10:17:39;;;;;;;70.13;24.48;;;;;;;-4.31;69.88;100468.75;5155931;27;20042;-57
2021/12/12 10:20:10;;;;;;;73.43;25.83;;;;;;;-4.29;69.56;100474.59;5149160;27;20583;-53
2021/12/12 10:22:48;;;;;;;74.35;26.63;;;;;;;-4.26;68.99;100467.47;5154655;27;20078;-56
2021/12/12 10:25:38;;;;;;;72.22;25.42;;;;;;;-4.17;69.10;100471.13;5154510;27;20427;-54
2021/12/12 10:28:19;;;;;;;81.18;27.73;;;;;;;-4.18;69.38;100477.22;5154325;27;20041;-55
2021/12/12 10:31:09;;;;;;;80.70;26.20;;;;;;;-4.13;69.50;100475.94;5155969;27;20046;-54
2021/12/12 10:33:48;;;;;;;66.53;23.52;;;;;;;-4.17;68.84;100471.94;5155625;27;20062;-56
2021/12/12 10:36:16;;;;;;;77.55;24.58;;;;;;;-4.20;69.81;100471.34;5154330;27;20065;-56
2021/12/12 10:38:55;;;;;;;75.00;24.85;;;;;;;-4.21;69.81;100467.09;5155486;27;20046;-55
2021/12/12 10:41:29;;;;;;;64.88;24.30;;;;;;;-4.24;69.92;100460.38;5154468;27;20050;-55
2021/12/12 10:44:02;;;;;;;71.72;23.63;;;;;;;-4.27;70.25;100462.38;5154476;27;20042;-54
2021/12/12 10:46:54;;;;;;;72.13;22.20;;;;;;;-4.21;69.38;100467.09;5155633;27;20074;-53
2021/12/12 10:49:23;;;;;;;77.97;24.10;;;;;;;-4.21;69.83;100460.16;5134838;27;20053;-56
2021/12/12 10:52:00;;;;;;;67.57;23.63;;;;;;;-4.21;69.74;100467.91;5155230;27;20053;-52
2021/12/12 10:54:49;;;;;;;76.45;25.50;;;;;;;-4.15;69.20;100464.03;5155334;27;20047;-55
2021/12/12 10:57:22;;;;;;;73.22;25.20;;;;;;;-4.16;69.14;100457.22;5155153;27;20528;-55
2021/12/12 10:59:52;;;;;;;82.68;24.92;;;;;;;-4.20;69.53;100451.47;5154060;27;20042;-53
2021/12/12 11:02:24;;;;;;;70.13;24.42;;;;;;;-4.16;69.92;100462.41;5154679;27;20045;-55
2021/12/12 11:05:01;;;;;;;72.05;25.92;;;;;;;-4.11;70.61;100468.06;5154784;27;20039;-56
2021/12/12 11:07:44;;;;;;;78.97;26.33;;;;;;;-4.11;69.72;100468.88;5155244;27;20054;-54
2021/12/12 11:10:17;;;;;;;76.90;25.70;;;;;;;-4.07;70.02;100456.53;5154887;27;20031;-57
2021/12/12 11:13:06;;;;;;;73.53;24.95;;;;;;;-3.91;69.76;100477.72;5155140;27;20087;-56
2021/12/12 11:15:53;;;;;;;73.00;24.48;;;;;;;-3.93;70.66;100473.59;5153683;27;20087;-55
2021/12/12 11:18:30;;;;;;;76.90;25.83;;;;;;;-3.88;69.77;100472.31;5154799;27;20042;-55
2021/12/12 11:21:09;;;;;;;69.70;25.33;;;;;;;-3.84;70.31;100470.31;5154618;27;20511;-56
2021/12/12 11:23:42;;;;;;;74.25;24.80;;;;;;;-3.96;70.61;100481.63;5154435;27;20333;-55
2021/12/12 11:26:23;;;;;;;75.28;25.25;;;;;;;-3.98;70.92;100476.53;5153131;27;20039;-55
2021/12/12 11:28:54;;;;;;;75.30;24.40;;;;;;;-3.98;71.54;100475.72;5154478;27;20560;-55
2021/12/12 11:31:32;;;;;;;76.90;25.60;;;;;;;-3.96;71.47;100479.84;5154430;27;20081;-56
2021/12/12 11:33:59;;;;;;;81.03;25.52;;;;;;;-3.95;70.92;100478.06;5154328;27;20130;-54
2021/12/12 11:36:28;;;;;;;71.97;23.10;;;;;;;-3.96;70.65;100469.47;5136029;27;20055;-54
2021/12/12 11:39:17;;;;;;;79.05;24.00;;;;;;;-4.00;71.14;100462.91;5152870;27;20568;-52
2021/12/12 11:41:57;;;;;;;71.80;23.55;;;;;;;-3.99;71.77;100461.13;5152749;27;20043;-53
2021/12/12 11:44:26;;;;;;;;;;;;;;;-3.98;71.38;100447.22;5153611;27;20038;-55
2021/12/12 11:47:37;;;;;;;78.70;28.00;;;;;;;-3.99;72.16;100451.59;5154350;27;20070;-55
2021/12/12 11:50:24;;;;;;;99.10;30.67;;;;;;;-3.95;72.68;100452.16;5152848;27;20047;-57